createdAt,value
2022-11-29T00:01:33.965Z,42.53
2022-11-29T00:04:01.793Z,43.03
2022-11-29T00:06:31.494Z,41.43
2022-11-29T00:09:01.596Z,39.40
2022-11-29T00:11:53.201Z,45.07
2022-11-29T00:14:20.985Z,40.70
2022-11-29T00:16:56.524Z,40.87
2022-11-29T00:19:23.553Z,45.27
2022-11-29T00:21:50.511Z,40.33
2022-11-29T00:24:17.650Z,38.87
2022-11-29T00:26:44.777Z,40.23
2022-11-29T00:29:13.077Z,39.63
2022-11-29T00:31:40.425Z,42.57
2022-11-29T00:34:07.699Z,39.73
2022-11-29T00:36:35.080Z,39.23
2022-11-29T00:39:03.675Z,41.97
2022-11-29T00:41:31.220Z,39.10
2022-11-29T00:43:58.279Z,39.87
2022-11-29T00:46:25.443Z,40.53
2022-11-29T00:48:52.347Z,40.97
2022-11-29T00:51:19.287Z,42.93
2022-11-29T00:53:46.105Z,41.50
2022-11-29T00:56:12.965Z,39.33
2022-11-29T00:58:39.804Z,41.23
2022-11-29T01:01:06.868Z,38.20
2022-11-29T01:03:34.114Z,44.43
2022-11-29T01:06:12.503Z,40.20
2022-11-29T01:08:39.796Z,43.83
2022-11-29T01:11:08.659Z,39.50
2022-11-29T01:13:36.017Z,39.97
2022-11-29T01:16:04.379Z,42.30
2022-11-29T01:18:31.675Z,40.97
2022-11-29T01:21:04.888Z,42.10
2022-11-29T01:23:32.138Z,38.37
2022-11-29T01:26:04.524Z,43.50
2022-11-29T01:28:31.948Z,43.80
2022-11-29T01:30:59.167Z,38.93
2022-11-29T01:33:26.029Z,43.60
2022-11-29T01:35:54.486Z,40.97
2022-11-29T01:38:22.310Z,45.50
2022-11-29T01:41:07.648Z,42.10
2022-11-29T01:43:52.672Z,43.97
2022-11-29T01:46:19.535Z,41.13
2022-11-29T01:48:46.450Z,42.83
2022-11-29T01:51:13.317Z,41.43
2022-11-29T01:53:40.210Z,42.87
2022-11-29T01:56:08.107Z,43.60
2022-11-29T01:58:36.065Z,40.40
2022-11-29T02:01:03.537Z,45.07
2022-11-29T02:03:30.419Z,40.67
2022-11-29T02:05:57.249Z,41.10
2022-11-29T02:08:29.719Z,38.77
2022-11-29T02:11:12.796Z,43.57
2022-11-29T02:13:57.620Z,41.00
2022-11-29T02:16:46.168Z,42.47
2022-11-29T02:19:27.380Z,38.53
2022-11-29T02:22:14.019Z,42.67
2022-11-29T02:24:44.177Z,40.97
2022-11-29T02:27:38.964Z,42.47
2022-11-29T02:30:17.873Z,40.83
2022-11-29T02:33:04.339Z,41.23
2022-11-29T02:35:43.206Z,40.03
2022-11-29T02:38:20.999Z,38.57
2022-11-29T02:41:17.921Z,39.07
2022-11-29T02:44:22.760Z,41.17
2022-11-29T02:47:13.208Z,43.53
2022-11-29T02:49:52.195Z,40.50
2022-11-29T02:52:50.656Z,42.20
2022-11-29T02:55:29.623Z,39.70
2022-11-29T02:58:08.564Z,40.33
2022-11-29T03:00:43.742Z,42.57
2022-11-29T03:03:14.631Z,39.60
2022-11-29T03:06:18.142Z,43.47
2022-11-29T03:09:07.053Z,43.10
2022-11-29T03:11:33.872Z,40.60
2022-11-29T03:14:06.798Z,42.03
2022-11-29T03:16:59.097Z,42.53
2022-11-29T03:19:44.526Z,40.27
2022-11-29T03:22:29.831Z,43.27
2022-11-29T03:25:08.678Z,43.07
2022-11-29T03:27:50.376Z,45.17
2022-11-29T03:30:18.615Z,39.67
2022-11-29T03:32:51.101Z,48.23
2022-11-29T03:35:25.511Z,44.00
2022-11-29T03:38:13.846Z,43.43
2022-11-29T03:41:05.971Z,41.77
2022-11-29T03:43:57.297Z,46.83
2022-11-29T03:46:46.362Z,43.37
2022-11-29T03:49:29.308Z,44.27
2022-11-29T03:52:26.576Z,45.67
2022-11-29T03:55:02.328Z,44.53
2022-11-29T03:57:45.113Z,44.87
2022-11-29T04:00:13.826Z,46.80
2022-11-29T04:03:00.874Z,40.13
2022-11-29T04:05:52.441Z,45.20
2022-11-29T04:08:53.329Z,43.83
2022-11-29T04:12:05.411Z,47.13
2022-11-29T04:14:43.995Z,44.47
2022-11-29T04:17:47.391Z,45.47
2022-11-29T04:20:17.231Z,45.73
2022-11-29T04:23:17.902Z,42.03
2022-11-29T04:26:03.512Z,46.67
2022-11-29T04:29:15.275Z,42.03
2022-11-29T04:32:07.215Z,43.33
2022-11-29T04:34:56.542Z,45.27
2022-11-29T04:38:01.042Z,47.70
2022-11-29T04:40:55.234Z,42.73
2022-11-29T04:43:43.356Z,48.63
2022-11-29T04:46:41.676Z,45.67
2022-11-29T04:49:42.128Z,47.80
2022-11-29T04:52:45.630Z,45.13
2022-11-29T04:55:33.940Z,42.13
2022-11-29T04:58:21.553Z,46.37
2022-11-29T05:01:15.037Z,44.30
2022-11-29T05:03:58.975Z,43.33
2022-11-29T05:06:34.931Z,43.30
2022-11-29T05:09:07.480Z,47.67
2022-11-29T05:11:37.297Z,42.20
2022-11-29T05:14:34.834Z,47.57
2022-11-29T05:17:19.232Z,44.73
2022-11-29T05:20:15.354Z,43.87
2022-11-29T05:23:12.208Z,48.03
2022-11-29T05:25:48.075Z,46.57
2022-11-29T05:29:02.313Z,46.03
2022-11-29T05:31:41.301Z,44.40
2022-11-29T05:34:41.502Z,45.37
2022-11-29T05:37:45.456Z,45.47
2022-11-29T05:40:40.835Z,43.43
2022-11-29T05:43:32.419Z,44.13
2022-11-29T05:46:05.234Z,42.27
2022-11-29T05:49:00.529Z,47.43
2022-11-29T05:51:35.923Z,41.97
2022-11-29T05:54:23.583Z,47.57
2022-11-29T05:57:22.238Z,46.13
2022-11-29T05:59:51.059Z,44.83
2022-11-29T06:02:39.528Z,44.50
2022-11-29T06:05:17.162Z,46.47
2022-11-29T06:08:08.324Z,44.17
2022-11-29T06:10:40.014Z,42.43
2022-11-29T06:13:28.640Z,41.67
2022-11-29T06:16:17.293Z,42.47
2022-11-29T06:19:00.806Z,43.87
2022-11-29T06:21:46.287Z,43.80
2022-11-29T06:24:28.242Z,46.33
2022-11-29T06:27:21.810Z,46.20
2022-11-29T06:30:04.737Z,41.90
2022-11-29T06:32:43.182Z,43.60
2022-11-29T06:35:34.945Z,43.17
2022-11-29T06:38:18.564Z,48.13
2022-11-29T06:40:45.870Z,45.53
2022-11-29T06:43:13.072Z,50.23
2022-11-29T06:45:44.089Z,45.70
2022-11-29T06:48:16.769Z,49.37
2022-11-29T06:51:05.345Z,47.43
2022-11-29T06:53:51.163Z,48.90
2022-11-29T06:56:34.431Z,48.00
2022-11-29T06:59:07.427Z,42.07
2022-11-29T07:01:52.044Z,46.90
2022-11-29T07:04:53.091Z,49.67
2022-11-29T07:07:22.217Z,48.40
2022-11-29T07:09:53.128Z,46.97
2022-11-29T07:12:20.312Z,49.17
2022-11-29T07:14:47.548Z,46.30
2022-11-29T07:17:27.764Z,46.77
2022-11-29T07:20:00.382Z,47.07
2022-11-29T07:22:45.434Z,44.47
2022-11-29T07:25:47.252Z,48.23
2022-11-29T07:28:20.300Z,54.73
2022-11-29T07:30:54.072Z,48.80
2022-11-29T07:33:29.599Z,42.70
2022-11-29T07:36:34.153Z,45.60
2022-11-29T07:39:32.822Z,48.23
2022-11-29T07:42:10.576Z,47.03
2022-11-29T07:45:12.644Z,43.30
2022-11-29T07:47:39.526Z,48.10
2022-11-29T07:50:06.913Z,43.03
2022-11-29T07:52:34.042Z,46.83
2022-11-29T07:55:01.861Z,42.43
2022-11-29T07:57:28.832Z,41.53
2022-11-29T07:59:55.579Z,44.03
2022-11-29T08:02:31.932Z,41.20
2022-11-29T08:04:59.054Z,48.90
2022-11-29T08:07:25.882Z,43.10
2022-11-29T08:09:52.859Z,42.47
2022-11-29T08:12:19.765Z,46.80
2022-11-29T08:14:46.791Z,40.63
2022-11-29T08:17:13.786Z,43.30
2022-11-29T08:19:40.619Z,43.10
2022-11-29T08:22:07.429Z,43.87
2022-11-29T08:24:34.270Z,42.07
2022-11-29T08:27:01.285Z,43.13
2022-11-29T08:29:28.076Z,44.37
2022-11-29T08:31:55.066Z,42.13
2022-11-29T08:34:23.598Z,38.03
2022-11-29T08:36:51.003Z,40.27
2022-11-29T08:39:17.890Z,40.27
2022-11-29T08:41:44.663Z,44.03
2022-11-29T08:44:11.668Z,43.17
2022-11-29T08:46:58.701Z,37.17
2022-11-29T08:49:25.722Z,41.80
2022-11-29T08:52:15.672Z,43.90
2022-11-29T08:54:42.887Z,42.67
2022-11-29T08:57:38.733Z,42.90
2022-11-29T08:59:57.713Z,41.37
2022-11-29T09:02:24.574Z,39.87
2022-11-29T09:04:51.400Z,39.77
2022-11-29T09:07:18.238Z,40.77
2022-11-29T09:09:45.051Z,42.93
2022-11-29T09:12:11.844Z,43.13
2022-11-29T09:14:38.674Z,44.23
2022-11-29T09:17:05.433Z,46.00
2022-11-29T09:19:32.597Z,44.13
2022-11-29T09:21:59.388Z,41.20
2022-11-29T09:24:26.237Z,42.13
2022-11-29T09:26:53.024Z,41.70
2022-11-29T09:29:20.028Z,39.33
2022-11-29T09:31:46.904Z,39.27
2022-11-29T09:34:18.745Z,43.60
2022-11-29T09:36:45.620Z,43.90
2022-11-29T09:39:12.469Z,33.77
2022-11-29T09:41:48.837Z,41.27
2022-11-29T09:44:18.687Z,40.20
2022-11-29T09:47:13.388Z,39.60
2022-11-29T09:49:52.386Z,41.43
2022-11-29T09:52:25.198Z,36.30
2022-11-29T09:55:16.076Z,40.87
2022-11-29T09:57:44.337Z,39.90
2022-11-29T10:00:20.591Z,42.80
2022-11-29T10:02:53.142Z,36.60
2022-11-29T10:05:31.446Z,40.30
2022-11-29T10:08:12.439Z,35.83
2022-11-29T10:10:48.571Z,40.77
2022-11-29T10:13:25.923Z,38.60
2022-11-29T10:16:12.311Z,38.67
2022-11-29T10:18:48.295Z,37.20
2022-11-29T10:21:20.977Z,38.03
2022-11-29T10:23:53.120Z,45.60
2022-11-29T10:26:20.819Z,41.77
2022-11-29T10:28:49.309Z,39.30
2022-11-29T10:31:35.060Z,37.77
2022-11-29T10:34:11.892Z,37.67
2022-11-29T10:36:49.834Z,35.53
2022-11-29T10:39:31.336Z,39.30
2022-11-29T10:42:01.810Z,39.10
2022-11-29T10:44:31.337Z,41.03
2022-11-29T10:47:05.508Z,41.63
2022-11-29T10:49:37.783Z,38.80
2022-11-29T10:52:05.358Z,36.40
2022-11-29T10:54:38.669Z,40.00
2022-11-29T10:57:16.986Z,40.27
2022-11-29T10:59:58.659Z,36.83
2022-11-29T11:02:25.802Z,42.53
2022-11-29T11:04:52.716Z,38.00
2022-11-29T11:07:31.037Z,39.13
2022-11-29T11:09:59.541Z,37.00
2022-11-29T11:12:31.849Z,38.00
2022-11-29T11:15:27.961Z,39.67
2022-11-29T11:18:00.325Z,39.60
2022-11-29T11:20:30.603Z,37.43
2022-11-29T11:23:00.965Z,38.17
2022-11-29T11:25:39.562Z,42.10
2022-11-29T11:28:29.535Z,38.80
2022-11-29T11:31:02.975Z,39.37
2022-11-29T11:33:34.045Z,35.93
2022-11-29T11:36:06.344Z,39.50
2022-11-29T11:38:41.666Z,37.77
2022-11-29T11:41:23.310Z,37.40
2022-11-29T11:43:53.406Z,38.70
2022-11-29T11:46:20.678Z,38.67
2022-11-29T11:48:48.431Z,38.57
2022-11-29T11:51:22.266Z,36.33
2022-11-29T11:53:54.928Z,36.37
2022-11-29T11:56:22.653Z,41.27
2022-11-29T11:58:57.955Z,34.77
2022-11-29T12:01:27.202Z,38.10
2022-11-29T12:04:03.566Z,40.33
2022-11-29T12:06:52.265Z,34.27
2022-11-29T12:09:46.158Z,35.00
2022-11-29T12:12:31.820Z,37.43
2022-11-29T12:15:17.239Z,35.60
2022-11-29T12:17:56.121Z,40.63
2022-11-29T12:20:49.248Z,36.03
2022-11-29T12:23:35.841Z,36.47
2022-11-29T12:26:56.327Z,37.20
2022-11-29T12:29:22.442Z,36.30
2022-11-29T12:32:04.286Z,35.33
2022-11-29T12:34:45.366Z,33.57
2022-11-29T12:37:25.816Z,37.50
2022-11-29T12:40:17.835Z,38.90
2022-11-29T12:43:10.499Z,36.53
2022-11-29T12:46:04.996Z,39.50
2022-11-29T12:49:02.491Z,38.30
2022-11-29T12:51:41.306Z,38.00
2022-11-29T12:54:29.308Z,40.83
2022-11-29T12:57:08.189Z,37.70
2022-11-29T12:59:58.945Z,42.97
2022-11-29T13:02:41.229Z,43.08
2022-11-29T13:05:31.046Z,37.67
2022-11-29T13:08:14.378Z,40.17
2022-11-29T13:11:07.287Z,39.77
2022-11-29T13:13:50.207Z,36.93
2022-11-29T13:19:42.157Z,40.57
2022-11-29T13:22:42.312Z,35.60
2022-11-29T13:25:17.546Z,39.50
2022-11-29T13:27:58.268Z,39.47
2022-11-29T13:30:26.175Z,39.67
2022-11-29T13:33:19.509Z,40.60
2022-11-29T13:36:29.246Z,37.43
2022-11-29T13:39:12.875Z,39.13
2022-11-29T13:42:17.458Z,40.07
2022-11-29T13:45:06.011Z,50.03
2022-11-29T13:47:32.811Z,44.53
2022-11-29T13:50:03.656Z,42.60
2022-11-29T13:52:36.755Z,37.50
2022-11-29T13:55:18.265Z,41.00
2022-11-29T13:58:16.725Z,42.23
2022-11-29T14:00:44.029Z,42.27
2022-11-29T14:03:29.001Z,38.93
2022-11-29T14:06:01.826Z,40.37
2022-11-29T14:09:02.368Z,42.27
2022-11-29T14:11:52.986Z,43.97
2022-11-29T14:14:25.966Z,38.07
2022-11-29T14:16:59.935Z,39.07
2022-11-29T14:19:36.434Z,40.53
2022-11-29T14:22:03.275Z,42.30
2022-11-29T14:24:35.883Z,40.33
2022-11-29T14:27:09.899Z,41.73
2022-11-29T14:29:53.650Z,40.50
2022-11-29T14:33:02.506Z,42.17
2022-11-29T14:35:48.552Z,42.80
2022-11-29T14:38:23.128Z,40.93
2022-11-29T14:41:01.822Z,39.80
2022-11-29T14:43:38.029Z,39.87
2022-11-29T14:46:17.144Z,40.27
2022-11-29T14:48:56.304Z,43.83
2022-11-29T14:51:25.497Z,49.70
2022-11-29T14:54:19.528Z,43.77
2022-11-29T14:56:47.407Z,41.40
2022-11-29T14:59:42.493Z,43.07
2022-11-29T15:02:34.148Z,46.53
2022-11-29T15:05:11.859Z,47.17
2022-11-29T15:07:44.107Z,45.90
2022-11-29T15:10:19.528Z,42.10
2022-11-29T15:12:47.315Z,44.40
2022-11-29T15:15:28.917Z,43.70
2022-11-29T15:18:26.533Z,45.53
2022-11-29T15:21:11.486Z,43.47
2022-11-29T15:23:43.033Z,47.97
2022-11-29T15:26:21.119Z,43.30
2022-11-29T15:28:47.979Z,43.20
2022-11-29T15:31:18.812Z,41.70
2022-11-29T15:33:48.622Z,42.37
2022-11-29T15:36:24.192Z,45.50
2022-11-29T15:38:54.273Z,45.33
2022-11-29T15:41:34.743Z,46.67
2022-11-29T15:44:07.369Z,44.20
2022-11-29T15:46:35.514Z,45.47
2022-11-29T15:49:25.649Z,45.90
2022-11-29T15:52:06.026Z,42.30
2022-11-29T15:54:42.257Z,47.50
2022-11-29T15:57:24.920Z,51.27
2022-11-29T15:59:58.158Z,46.57
2022-11-29T16:02:29.263Z,47.67
2022-11-29T16:05:11.416Z,48.30
2022-11-29T16:07:39.391Z,52.87
2022-11-29T16:10:22.909Z,48.33
2022-11-29T16:13:04.074Z,55.90
2022-11-29T16:15:43.734Z,50.13
2022-11-29T16:18:16.395Z,49.57
2022-11-29T16:20:45.411Z,46.73
2022-11-29T16:23:14.544Z,50.77
2022-11-29T16:26:09.991Z,50.47
2022-11-29T16:28:42.548Z,50.83
2022-11-29T16:31:12.423Z,51.03
2022-11-29T16:33:43.689Z,48.23
2022-11-29T16:36:28.818Z,54.43
2022-11-29T16:39:20.121Z,62.10
2022-11-29T16:42:25.912Z,51.57
2022-11-29T16:45:02.136Z,55.00
2022-11-29T16:47:31.399Z,56.17
2022-11-29T16:50:17.877Z,54.03
2022-11-29T16:52:45.125Z,65.53
2022-11-29T16:55:12.352Z,53.67
2022-11-29T16:57:39.863Z,51.73
2022-11-29T17:00:22.529Z,52.27
2022-11-29T17:02:49.557Z,51.73
2022-11-29T17:05:16.574Z,50.40
2022-11-29T17:07:43.884Z,50.50
2022-11-29T17:10:16.930Z,52.37
2022-11-29T17:12:47.956Z,49.80
2022-11-29T17:15:15.465Z,50.73
2022-11-29T17:17:43.474Z,49.70
2022-11-29T17:20:12.458Z,50.53
2022-11-29T17:22:39.632Z,50.37
2022-11-29T17:25:06.687Z,50.10
2022-11-29T17:27:33.519Z,54.30
2022-11-29T17:30:00.307Z,55.97
2022-11-29T17:32:27.275Z,51.40
2022-11-29T17:34:54.398Z,54.17
2022-11-29T17:37:21.141Z,55.70
2022-11-29T17:39:49.055Z,49.17
2022-11-29T17:42:16.049Z,50.27
2022-11-29T17:44:42.840Z,52.80
2022-11-29T17:47:09.617Z,54.87
2022-11-29T17:49:36.403Z,49.93
2022-11-29T17:52:03.309Z,51.60
2022-11-29T17:54:32.998Z,51.43
2022-11-29T17:57:00.934Z,51.90
2022-11-29T17:59:27.741Z,52.17
2022-11-29T18:01:54.601Z,52.17
2022-11-29T18:04:21.709Z,48.40
2022-11-29T18:06:51.348Z,52.33
2022-11-29T18:09:18.796Z,55.23
2022-11-29T18:11:49.032Z,53.47
2022-11-29T18:14:23.391Z,52.47
2022-11-29T18:16:51.169Z,51.03
2022-11-29T18:19:20.261Z,57.03
2022-11-29T18:21:47.858Z,47.70
2022-11-29T18:24:15.118Z,54.57
2022-11-29T18:26:42.682Z,47.80
2022-11-29T18:29:10.085Z,52.40
2022-11-29T18:31:39.905Z,46.67
2022-11-29T18:34:11.800Z,52.43
2022-11-29T18:36:44.367Z,49.17
2022-11-29T18:39:14.529Z,51.23
2022-11-29T18:41:44.463Z,52.17
2022-11-29T18:44:13.497Z,50.67
2022-11-29T18:46:43.147Z,49.13
2022-11-29T18:49:12.316Z,47.87
2022-11-29T18:51:39.677Z,54.73
2022-11-29T18:54:06.832Z,49.13
2022-11-29T18:56:35.528Z,46.80
2022-11-29T18:59:04.720Z,49.90
2022-11-29T19:01:34.634Z,50.40
2022-11-29T19:04:02.148Z,53.20
2022-11-29T19:06:38.643Z,47.87
2022-11-29T19:09:07.114Z,46.47
2022-11-29T19:11:34.902Z,49.60
2022-11-29T19:14:11.045Z,49.60
2022-11-29T19:16:39.459Z,50.93
2022-11-29T19:19:06.722Z,45.53
2022-11-29T19:21:34.642Z,50.60
2022-11-29T19:24:06.804Z,54.47
2022-11-29T19:26:34.967Z,48.27
2022-11-29T19:29:02.105Z,48.87
2022-11-29T19:31:29.661Z,49.80
2022-11-29T19:33:57.585Z,46.10
2022-11-29T19:36:32.064Z,47.53
2022-11-29T19:39:02.436Z,48.23
2022-11-29T19:41:34.267Z,50.20
2022-11-29T19:44:07.384Z,50.33
2022-11-29T19:46:48.840Z,51.53
2022-11-29T19:49:16.126Z,46.97
2022-11-29T19:51:43.410Z,52.03
2022-11-29T19:54:10.667Z,50.27
2022-11-29T19:56:38.942Z,49.77
2022-11-29T19:59:07.261Z,49.20
2022-11-29T20:01:40.678Z,51.27
2022-11-29T20:04:09.772Z,50.17
2022-11-29T20:06:36.965Z,50.00
2022-11-29T20:09:04.133Z,50.70
2022-11-29T20:11:30.983Z,48.60
2022-11-29T20:14:00.172Z,49.50
2022-11-29T20:16:28.583Z,46.37
2022-11-29T20:18:55.865Z,48.40
2022-11-29T20:21:32.815Z,48.77
2022-11-29T20:24:05.891Z,46.03
2022-11-29T20:26:36.351Z,50.40
2022-11-29T20:29:04.302Z,48.10
2022-11-29T20:31:32.702Z,51.17
2022-11-29T20:34:00.238Z,51.33
2022-11-29T20:36:39.216Z,51.70
2022-11-29T20:39:28.673Z,52.23
2022-11-29T20:42:25.676Z,49.83
2022-11-29T20:44:58.307Z,50.63
2022-11-29T20:47:53.075Z,49.47
2022-11-29T20:50:28.891Z,51.70
2022-11-29T20:53:14.529Z,54.70
2022-11-29T20:55:47.515Z,54.10
2022-11-29T20:58:15.145Z,53.17
2022-11-29T21:00:42.171Z,55.60
2022-11-29T21:03:12.178Z,51.60
2022-11-29T21:05:39.029Z,52.80
2022-11-29T21:08:05.850Z,54.90
2022-11-29T21:10:33.239Z,51.30
2022-11-29T21:13:00.404Z,54.33
2022-11-29T21:15:27.580Z,51.20
2022-11-29T21:17:54.755Z,52.93
2022-11-29T21:20:24.606Z,57.77
2022-11-29T21:23:22.737Z,52.33
2022-11-29T21:26:08.101Z,54.83
2022-11-29T21:28:41.607Z,51.97
2022-11-29T21:31:12.816Z,49.90
2022-11-29T21:33:40.014Z,52.07
2022-11-29T21:36:08.801Z,54.57
2022-11-29T21:38:35.699Z,56.13
2022-11-29T21:41:02.474Z,51.77
2022-11-29T21:43:58.067Z,51.70
2022-11-29T21:46:16.972Z,53.40
2022-11-29T21:48:44.407Z,55.27
2022-11-29T21:51:11.910Z,54.07
2022-11-29T21:53:39.903Z,54.70
2022-11-29T21:56:08.982Z,51.73
2022-11-29T21:58:37.251Z,55.20
2022-11-29T22:01:18.932Z,55.63
2022-11-29T22:03:46.144Z,55.03
2022-11-29T22:06:18.548Z,52.53
2022-11-29T22:08:45.519Z,53.97
2022-11-29T22:11:15.199Z,53.37
2022-11-29T22:14:02.257Z,54.07
2022-11-29T22:16:30.152Z,53.93
2022-11-29T22:18:57.039Z,54.57
2022-11-29T22:21:23.876Z,53.10
2022-11-29T22:23:52.752Z,56.90
2022-11-29T22:26:21.545Z,55.23
2022-11-29T22:28:48.444Z,57.00
2022-11-29T22:31:15.250Z,52.03
2022-11-29T22:33:42.082Z,54.47
2022-11-29T22:36:10.983Z,52.90
2022-11-29T22:38:38.895Z,54.13
2022-11-29T22:41:11.552Z,53.03
2022-11-29T22:43:39.893Z,58.73
2022-11-29T22:46:10.503Z,58.77
2022-11-29T22:48:39.183Z,53.10
2022-11-29T22:51:07.400Z,55.37
2022-11-29T22:53:35.403Z,54.77
2022-11-29T22:56:04.399Z,56.80
2022-11-29T22:58:31.817Z,55.87
2022-11-29T23:01:03.824Z,53.20
2022-11-29T23:03:37.102Z,61.40
2022-11-29T23:06:09.394Z,58.97
2022-11-29T23:08:36.747Z,55.47
2022-11-29T23:11:05.179Z,57.37
2022-11-29T23:13:34.230Z,55.93
2022-11-29T23:16:01.516Z,55.37
2022-11-29T23:18:28.545Z,55.43
2022-11-29T23:21:06.984Z,54.10
2022-11-29T23:23:34.509Z,56.80
2022-11-29T23:26:02.305Z,59.80
2022-11-29T23:28:29.887Z,56.97
2022-11-29T23:30:58.156Z,56.30
2022-11-29T23:33:25.019Z,51.47
2022-11-29T23:35:58.931Z,53.50
2022-11-29T23:38:25.736Z,60.83
2022-11-29T23:40:52.552Z,57.40
2022-11-29T23:43:19.375Z,55.27
2022-11-29T23:45:46.260Z,57.43
2022-11-29T23:48:14.733Z,59.87
2022-11-29T23:50:43.249Z,59.53
2022-11-29T23:53:13.974Z,57.50
2022-11-29T23:55:40.876Z,54.60
2022-11-29T23:58:08.005Z,56.77
